createdAt,value
2023-01-17T00:01:31.273Z,3.70
2023-01-17T00:04:16.010Z,3.77
2023-01-17T00:07:00.870Z,3.63
2023-01-17T00:09:45.408Z,4.03
2023-01-17T00:12:11.861Z,4.80
2023-01-17T00:14:37.998Z,5.10
2023-01-17T00:17:04.177Z,5.20
2023-01-17T00:19:48.744Z,5.17
2023-01-17T00:22:42.415Z,5.37
2023-01-17T00:25:36.148Z,5.70
2023-01-17T00:28:03.766Z,5.43
2023-01-17T00:30:30.279Z,5.13
2023-01-17T00:32:56.383Z,5.90
2023-01-17T00:35:24.499Z,5.40
2023-01-17T00:38:06.221Z,5.33
2023-01-17T00:40:35.904Z,5.03
2023-01-17T00:43:21.439Z,4.60
2023-01-17T00:46:06.596Z,4.30
2023-01-17T00:48:52.208Z,4.20
2023-01-17T00:51:38.124Z,3.97
2023-01-17T00:54:23.816Z,3.70
2023-01-17T00:57:08.870Z,3.80
2023-01-17T00:59:54.621Z,3.73
2023-01-17T01:02:39.565Z,3.30
2023-01-17T01:05:24.848Z,3.30
2023-01-17T01:08:09.422Z,3.07
2023-01-17T01:10:54.418Z,3.10
2023-01-17T01:13:44.665Z,3.00
2023-01-17T01:16:30.745Z,3.30
2023-01-17T01:19:15.883Z,3.93
2023-01-17T01:22:01.322Z,3.40
2023-01-17T01:24:46.672Z,3.77
2023-01-17T01:27:31.847Z,3.47
2023-01-17T01:30:17.091Z,3.43
2023-01-17T01:33:01.867Z,3.60
2023-01-17T01:35:28.530Z,3.70
2023-01-17T01:37:55.075Z,3.67
2023-01-17T01:40:21.612Z,3.47
2023-01-17T01:42:59.178Z,3.87
2023-01-17T01:45:31.593Z,4.50
2023-01-17T01:48:11.913Z,3.70
2023-01-17T01:50:38.475Z,4.23
2023-01-17T01:53:06.434Z,3.83
2023-01-17T01:55:39.043Z,4.23
2023-01-17T01:58:19.494Z,3.80
2023-01-17T02:00:45.960Z,4.43
2023-01-17T02:03:22.519Z,3.87
2023-01-17T02:05:48.946Z,4.03
2023-01-17T02:08:20.822Z,4.03
2023-01-17T02:10:47.639Z,3.97
2023-01-17T02:13:18.464Z,4.10
2023-01-17T02:16:07.145Z,3.70
2023-01-17T02:19:19.894Z,3.57
2023-01-17T02:22:21.490Z,3.40
2023-01-17T02:25:36.763Z,3.70
2023-01-17T02:28:33.770Z,3.90
2023-01-17T02:31:28.976Z,3.97
2023-01-17T02:34:09.686Z,4.43
2023-01-17T02:37:03.296Z,5.10
2023-01-17T02:39:52.456Z,4.43
2023-01-17T02:42:25.737Z,4.40
2023-01-17T02:44:52.577Z,4.30
2023-01-17T02:47:26.937Z,4.40
2023-01-17T02:50:16.724Z,4.80
2023-01-17T02:53:13.791Z,4.93
2023-01-17T02:55:57.888Z,4.70
2023-01-17T02:58:30.408Z,4.73
2023-01-17T03:01:24.867Z,5.63
2023-01-17T03:04:10.965Z,5.00
2023-01-17T03:07:02.286Z,5.23
2023-01-17T03:09:31.686Z,4.90
2023-01-17T03:11:59.005Z,4.70
2023-01-17T03:14:25.470Z,4.87
2023-01-17T03:16:52.538Z,4.57
2023-01-17T03:19:19.868Z,4.50
2023-01-17T03:21:46.001Z,4.67
2023-01-17T03:24:12.135Z,4.13
2023-01-17T03:26:38.254Z,4.57
2023-01-17T03:29:04.651Z,4.07
2023-01-17T03:31:31.053Z,4.00
2023-01-17T03:33:57.200Z,4.00
2023-01-17T03:36:23.372Z,4.10
2023-01-17T03:38:49.494Z,4.07
2023-01-17T03:41:15.640Z,4.30
2023-01-17T03:43:42.004Z,3.73
2023-01-17T03:46:24.756Z,3.70
2023-01-17T03:48:51.607Z,3.50
2023-01-17T03:51:19.643Z,3.73
2023-01-17T03:53:46.633Z,4.00
2023-01-17T03:56:14.193Z,3.80
2023-01-17T03:58:41.629Z,4.20
2023-01-17T04:01:08.357Z,4.30
2023-01-17T04:03:34.800Z,3.67
2023-01-17T04:06:01.293Z,3.50
2023-01-17T04:08:27.903Z,3.60
2023-01-17T04:10:54.087Z,2.93
2023-01-17T04:13:20.206Z,3.60
2023-01-17T04:15:49.446Z,3.23
2023-01-17T04:18:22.488Z,3.47
2023-01-17T04:20:48.665Z,3.43
2023-01-17T04:23:14.804Z,3.60
2023-01-17T04:25:41.467Z,3.17
2023-01-17T04:28:07.640Z,3.50
2023-01-17T04:30:34.259Z,3.13
2023-01-17T04:33:00.415Z,3.80
2023-01-17T04:35:29.591Z,4.00
2023-01-17T04:37:55.981Z,3.93
2023-01-17T04:40:22.234Z,4.43
2023-01-17T04:42:48.723Z,4.70
2023-01-17T04:45:15.351Z,4.57
2023-01-17T04:47:41.491Z,4.77
2023-01-17T04:50:09.461Z,5.17
2023-01-17T04:52:35.857Z,5.57
2023-01-17T04:55:02.012Z,5.00
2023-01-17T04:57:28.153Z,5.93
2023-01-17T04:59:54.301Z,5.23
2023-01-17T05:02:20.752Z,5.97
2023-01-17T05:04:47.397Z,6.43
2023-01-17T05:07:13.849Z,6.70
2023-01-17T05:09:40.089Z,6.23
2023-01-17T05:12:06.236Z,5.73
2023-01-17T05:14:33.563Z,6.23
2023-01-17T05:17:00.472Z,5.93
2023-01-17T05:19:26.868Z,6.13
2023-01-17T05:21:53.335Z,5.33
2023-01-17T05:24:19.718Z,5.97
2023-01-17T05:26:53.718Z,5.97
2023-01-17T05:29:21.150Z,6.43
2023-01-17T05:31:47.318Z,5.80
2023-01-17T05:34:13.790Z,6.33
2023-01-17T05:36:40.738Z,5.63
2023-01-17T05:39:06.969Z,6.03
2023-01-17T05:41:33.328Z,6.17
2023-01-17T05:43:59.683Z,6.50
2023-01-17T05:46:26.080Z,6.87
2023-01-17T05:48:52.216Z,6.90
2023-01-17T05:51:18.365Z,7.47
2023-01-17T05:53:44.482Z,6.90
2023-01-17T05:56:10.876Z,7.20
2023-01-17T05:58:37.027Z,7.17
2023-01-17T06:01:03.445Z,7.27
2023-01-17T06:03:29.607Z,8.00
2023-01-17T06:05:55.796Z,7.50
2023-01-17T06:08:22.929Z,7.40
2023-01-17T06:10:49.251Z,7.17
2023-01-17T06:13:20.052Z,6.60
2023-01-17T06:15:47.012Z,7.33
2023-01-17T06:18:15.836Z,7.20
2023-01-17T06:20:42.598Z,7.20
2023-01-17T06:23:13.264Z,6.90
2023-01-17T06:25:45.332Z,7.10
2023-01-17T06:28:14.886Z,6.97
2023-01-17T06:30:41.953Z,6.53
2023-01-17T06:33:08.072Z,6.80
2023-01-17T06:35:34.564Z,6.90
2023-01-17T06:38:00.736Z,6.70
2023-01-17T06:40:28.566Z,7.10
2023-01-17T06:43:00.782Z,7.93
2023-01-17T06:45:29.110Z,7.20
2023-01-17T06:47:55.400Z,7.97
2023-01-17T06:50:21.691Z,7.70
2023-01-17T06:53:03.915Z,7.37
2023-01-17T06:55:32.787Z,5.93
2023-01-17T06:57:59.930Z,7.80
2023-01-17T07:00:26.961Z,8.13
2023-01-17T07:02:53.775Z,7.57
2023-01-17T07:05:20.351Z,7.60
2023-01-17T07:07:47.490Z,7.50
2023-01-17T07:10:15.252Z,8.10
2023-01-17T07:12:42.051Z,8.77
2023-01-17T07:15:09.327Z,8.27
2023-01-17T07:17:35.629Z,8.07
2023-01-17T07:20:02.035Z,7.83
2023-01-17T07:22:28.487Z,7.60
2023-01-17T07:24:57.780Z,7.90
2023-01-17T07:27:26.921Z,8.27
2023-01-17T07:29:54.316Z,7.37
2023-01-17T07:32:21.067Z,8.57
2023-01-17T07:34:47.335Z,8.70
2023-01-17T07:37:15.214Z,8.60
2023-01-17T07:39:41.826Z,8.70
2023-01-17T07:42:08.362Z,9.07
2023-01-17T07:44:34.487Z,11.00
2023-01-17T07:47:00.779Z,8.03
2023-01-17T07:49:26.931Z,9.10
2023-01-17T07:51:54.437Z,10.07
2023-01-17T07:54:20.616Z,9.63
2023-01-17T07:56:47.227Z,9.40
2023-01-17T07:59:13.765Z,8.73
2023-01-17T08:01:40.037Z,8.70
2023-01-17T08:04:06.276Z,9.10
2023-01-17T08:06:33.079Z,8.33
2023-01-17T08:08:59.466Z,8.30
2023-01-17T08:11:25.959Z,8.57
2023-01-17T08:13:56.637Z,9.13
2023-01-17T08:16:24.298Z,9.20
2023-01-17T08:18:51.504Z,9.00
2023-01-17T08:21:18.030Z,9.60
2023-01-17T08:23:49.027Z,9.17
2023-01-17T08:26:23.529Z,8.97
2023-01-17T08:28:56.053Z,9.63
2023-01-17T08:31:23.340Z,8.47
2023-01-17T08:33:49.561Z,9.47
2023-01-17T08:36:16.108Z,9.70
2023-01-17T08:38:42.247Z,8.63
2023-01-17T08:41:08.379Z,9.33
2023-01-17T08:43:34.839Z,9.27
2023-01-17T08:46:01.391Z,8.93
2023-01-17T08:48:27.779Z,9.10
2023-01-17T08:50:54.945Z,8.40
2023-01-17T08:53:22.408Z,9.63
2023-01-17T08:55:48.637Z,9.03
2023-01-17T08:58:14.880Z,8.73
2023-01-17T09:00:41.131Z,8.13
2023-01-17T09:03:13.427Z,8.77
2023-01-17T09:05:39.940Z,9.10
2023-01-17T09:08:06.127Z,8.57
2023-01-17T09:10:32.284Z,9.53
2023-01-17T09:12:58.420Z,8.90
2023-01-17T09:15:25.118Z,9.67
2023-01-17T09:17:55.533Z,8.07
2023-01-17T09:20:23.003Z,10.23
2023-01-17T09:22:51.021Z,10.23
2023-01-17T09:25:17.233Z,11.47
2023-01-17T09:27:46.446Z,12.83
2023-01-17T09:30:13.411Z,10.47
2023-01-17T09:32:39.551Z,9.57
2023-01-17T09:35:07.935Z,10.13
2023-01-17T09:37:34.083Z,8.97
2023-01-17T09:40:00.236Z,9.43
2023-01-17T09:42:38.722Z,9.60
2023-01-17T09:45:15.559Z,10.17
2023-01-17T09:47:52.283Z,9.80
2023-01-17T09:50:54.200Z,10.03
2023-01-17T09:53:20.706Z,11.07
2023-01-17T09:56:20.353Z,10.67
2023-01-17T09:59:33.126Z,10.83
2023-01-17T10:02:38.624Z,9.50
2023-01-17T10:05:16.703Z,9.57
2023-01-17T10:08:28.949Z,9.97
2023-01-17T10:11:07.113Z,10.13
2023-01-17T10:14:02.254Z,9.30
2023-01-17T10:17:09.830Z,8.90
2023-01-17T10:20:20.950Z,8.60
2023-01-17T10:23:26.459Z,7.93
2023-01-17T10:26:08.949Z,7.60
2023-01-17T10:28:46.821Z,7.87
2023-01-17T10:31:37.741Z,7.63
2023-01-17T10:34:18.388Z,7.90
2023-01-17T10:36:50.822Z,7.83
2023-01-17T10:39:27.645Z,8.37
2023-01-17T10:42:19.149Z,8.73
2023-01-17T10:45:13.127Z,8.47
2023-01-17T10:47:44.805Z,7.50
2023-01-17T10:50:15.676Z,8.47
2023-01-17T10:53:43.512Z,9.17
2023-01-17T10:56:16.241Z,8.23
2023-01-17T10:58:47.511Z,9.47
2023-01-17T11:01:21.238Z,8.33
2023-01-17T11:03:53.801Z,8.37
2023-01-17T11:06:24.014Z,8.23
2023-01-17T11:08:59.151Z,8.40
2023-01-17T11:11:31.149Z,8.13
2023-01-17T11:14:03.756Z,8.13
2023-01-17T11:16:31.326Z,7.63
2023-01-17T11:19:27.955Z,7.80
2023-01-17T11:22:04.068Z,8.03
2023-01-17T11:24:46.786Z,8.27
2023-01-17T11:27:29.977Z,7.77
2023-01-17T11:30:20.022Z,7.57
2023-01-17T11:32:59.347Z,7.60
2023-01-17T11:35:35.993Z,8.13
2023-01-17T11:38:17.643Z,7.50
2023-01-17T11:40:48.621Z,7.57
2023-01-17T11:43:26.911Z,7.43
2023-01-17T11:46:13.064Z,9.83
2023-01-17T11:48:39.653Z,9.40
2023-01-17T11:51:30.535Z,7.43
2023-01-17T11:54:26.554Z,6.37
2023-01-17T11:57:01.929Z,5.73
2023-01-17T11:59:34.325Z,5.77
2023-01-17T12:02:36.669Z,6.60
2023-01-17T12:05:42.295Z,6.00
2023-01-17T12:08:53.373Z,6.53
2023-01-17T12:12:00.495Z,6.50
2023-01-17T12:15:03.143Z,5.67
2023-01-17T12:18:18.432Z,7.03
2023-01-17T12:21:20.736Z,8.40
2023-01-17T12:24:33.908Z,7.57
2023-01-17T12:27:06.069Z,7.67
2023-01-17T12:29:35.789Z,13.33
2023-01-17T12:32:26.871Z,9.17
2023-01-17T12:35:08.474Z,8.27
2023-01-17T12:37:43.613Z,10.87
2023-01-17T12:40:17.455Z,8.97
2023-01-17T12:43:12.536Z,8.63
2023-01-17T12:45:44.346Z,9.03
2023-01-17T12:48:22.923Z,10.33
2023-01-17T12:50:56.991Z,9.80
2023-01-17T12:54:03.569Z,7.83
2023-01-17T12:57:04.122Z,7.50
2023-01-17T13:00:07.734Z,7.37
2023-01-17T13:02:53.263Z,5.70
2023-01-17T13:05:29.966Z,5.80
2023-01-17T13:08:21.305Z,5.23
2023-01-17T13:10:58.319Z,7.37
2023-01-17T13:13:28.210Z,6.37
2023-01-17T13:16:15.104Z,7.43
2023-01-17T13:18:47.148Z,6.13
2023-01-17T13:21:34.508Z,5.93
2023-01-17T13:24:21.911Z,5.93
2023-01-17T13:27:15.681Z,5.90
2023-01-17T13:30:15.983Z,5.63
2023-01-17T13:33:26.635Z,5.90
2023-01-17T13:36:01.103Z,6.10
2023-01-17T13:38:57.328Z,5.97
2023-01-17T13:41:56.351Z,6.67
2023-01-17T13:44:29.222Z,8.27
2023-01-17T13:47:08.831Z,9.80
2023-01-17T13:49:50.857Z,8.37
2023-01-17T13:52:24.974Z,7.27
2023-01-17T13:55:08.603Z,6.67
2023-01-17T13:57:46.504Z,6.80
2023-01-17T14:00:20.938Z,5.87
2023-01-17T14:02:49.929Z,6.80
2023-01-17T14:05:22.186Z,5.83
2023-01-17T14:08:11.311Z,6.40
2023-01-17T14:11:03.280Z,7.17
2023-01-17T14:13:37.630Z,6.07
2023-01-17T14:16:22.847Z,6.27
2023-01-17T14:18:49.679Z,5.93
2023-01-17T14:21:30.868Z,5.97
2023-01-17T14:24:17.525Z,7.07
2023-01-17T14:26:51.530Z,5.53
2023-01-17T14:29:51.675Z,5.77
2023-01-17T14:32:26.581Z,5.90
2023-01-17T14:34:53.124Z,5.23
2023-01-17T14:37:43.229Z,5.23
2023-01-17T14:40:29.925Z,5.53
2023-01-17T14:43:03.488Z,5.20
2023-01-17T14:45:33.286Z,5.43
2023-01-17T14:48:03.977Z,5.10
2023-01-17T14:50:38.733Z,6.00
2023-01-17T14:53:12.543Z,5.20
2023-01-17T14:55:54.379Z,5.53
2023-01-17T14:58:29.779Z,5.20
2023-01-17T15:01:10.774Z,5.00
2023-01-17T15:03:53.197Z,5.67
2023-01-17T15:06:40.777Z,5.70
2023-01-17T15:09:37.955Z,5.50
2023-01-17T15:12:09.386Z,5.40
2023-01-17T15:14:41.859Z,6.27
2023-01-17T15:17:15.028Z,5.53
2023-01-17T15:19:50.406Z,7.27
2023-01-17T15:22:18.822Z,5.47
2023-01-17T15:24:48.162Z,6.80
2023-01-17T15:27:16.208Z,5.47
2023-01-17T15:29:45.062Z,6.67
2023-01-17T15:32:30.589Z,6.07
2023-01-17T15:34:59.248Z,6.47
2023-01-17T15:37:36.042Z,5.43
2023-01-17T15:40:17.109Z,6.43
2023-01-17T15:42:48.378Z,5.37
2023-01-17T15:45:21.422Z,5.63
2023-01-17T15:47:48.145Z,4.80
2023-01-17T15:50:20.545Z,5.50
2023-01-17T15:52:49.526Z,4.87
2023-01-17T15:55:47.112Z,5.40
2023-01-17T15:58:33.549Z,5.10
2023-01-17T16:01:00.182Z,5.10
2023-01-17T16:03:30.989Z,8.20
2023-01-17T16:06:00.032Z,7.70
2023-01-17T16:08:38.464Z,6.60
2023-01-17T16:11:09.599Z,5.27
2023-01-17T16:13:38.360Z,6.47
2023-01-17T16:16:16.926Z,7.50
2023-01-17T16:18:45.731Z,7.77
2023-01-17T16:21:24.207Z,8.37
2023-01-17T16:23:51.410Z,11.00
2023-01-17T16:26:18.410Z,12.03
2023-01-17T16:28:45.054Z,10.83
2023-01-17T16:31:11.362Z,10.20
2023-01-17T16:33:38.550Z,9.83
2023-01-17T16:36:05.492Z,9.37
2023-01-17T16:38:31.630Z,7.90
2023-01-17T16:40:57.799Z,8.80
2023-01-17T16:43:24.001Z,7.80
2023-01-17T16:45:53.202Z,9.03
2023-01-17T16:48:20.588Z,9.27
2023-01-17T16:50:51.739Z,11.00
2023-01-17T16:53:24.279Z,12.93
2023-01-17T16:55:55.397Z,12.50
2023-01-17T16:58:21.641Z,9.03
2023-01-17T17:00:48.121Z,13.23
2023-01-17T17:03:19.780Z,17.07
2023-01-17T17:05:59.755Z,18.00
2023-01-17T17:08:28.775Z,16.83
2023-01-17T17:11:12.610Z,23.87
2023-01-17T17:13:40.681Z,21.87
2023-01-17T17:16:19.408Z,15.60
2023-01-17T17:18:54.249Z,16.80
2023-01-17T17:21:20.807Z,15.70
2023-01-17T17:23:50.153Z,14.10
2023-01-17T17:26:17.665Z,14.13
2023-01-17T17:28:43.773Z,13.60
2023-01-17T17:31:10.221Z,14.27
2023-01-17T17:33:37.899Z,12.43
2023-01-17T17:36:07.504Z,11.90
2023-01-17T17:38:34.449Z,15.50
2023-01-17T17:41:06.430Z,19.67
2023-01-17T17:43:40.699Z,20.63
2023-01-17T17:46:07.686Z,16.67
2023-01-17T17:48:35.322Z,17.37
2023-01-17T17:51:03.414Z,14.77
2023-01-17T17:53:29.782Z,11.77
2023-01-17T17:56:02.159Z,14.63
2023-01-17T17:58:30.033Z,14.70
2023-01-17T18:01:02.945Z,24.30
2023-01-17T18:03:30.263Z,21.43
2023-01-17T18:06:08.558Z,19.20
2023-01-17T18:08:36.598Z,13.23
2023-01-17T18:11:14.478Z,15.53
2023-01-17T18:13:42.039Z,13.53
2023-01-17T18:16:13.634Z,12.33
2023-01-17T18:18:45.720Z,12.00
2023-01-17T18:21:15.913Z,12.80
2023-01-17T18:23:44.125Z,12.70
2023-01-17T18:26:27.093Z,11.83
2023-01-17T18:28:55.901Z,11.63
2023-01-17T18:31:26.374Z,11.80
2023-01-17T18:33:58.975Z,12.10
2023-01-17T18:36:29.121Z,9.80
2023-01-17T18:38:56.460Z,11.30
2023-01-17T18:41:32.597Z,12.63
2023-01-17T18:43:58.735Z,11.40
2023-01-17T18:46:26.420Z,10.83
2023-01-17T18:48:56.348Z,15.07
2023-01-17T18:51:23.299Z,15.80
2023-01-17T18:53:49.843Z,15.73
2023-01-17T18:56:19.826Z,14.27
2023-01-17T18:58:48.377Z,14.33
2023-01-17T19:01:27.453Z,15.20
2023-01-17T19:03:58.048Z,18.73
2023-01-17T19:06:34.490Z,15.67
2023-01-17T19:09:02.154Z,15.93
2023-01-17T19:11:29.208Z,14.77
2023-01-17T19:13:56.248Z,12.53
2023-01-17T19:16:29.694Z,11.67
2023-01-17T19:19:01.038Z,10.83
2023-01-17T19:21:28.038Z,9.93
2023-01-17T19:23:56.030Z,11.07
2023-01-17T19:26:24.732Z,11.87
2023-01-17T19:28:51.370Z,11.93
2023-01-17T19:31:20.474Z,15.23
2023-01-17T19:33:48.210Z,15.87
2023-01-17T19:36:18.991Z,19.77
2023-01-17T19:38:58.644Z,17.40
2023-01-17T19:41:30.170Z,12.50
2023-01-17T19:43:59.958Z,13.83
2023-01-17T19:46:27.040Z,13.63
2023-01-17T19:48:55.957Z,13.70
2023-01-17T19:51:23.721Z,14.23
2023-01-17T19:53:50.357Z,13.27
2023-01-17T19:56:20.223Z,15.10
2023-01-17T19:58:47.499Z,14.03
2023-01-17T20:01:24.613Z,10.67
2023-01-17T20:03:51.512Z,12.10
2023-01-17T20:06:21.621Z,13.53
2023-01-17T20:08:48.683Z,12.97
2023-01-17T20:11:19.169Z,13.43
2023-01-17T20:13:53.713Z,12.93
2023-01-17T20:16:21.318Z,12.90
2023-01-17T20:18:48.960Z,14.03
2023-01-17T20:21:25.331Z,14.17
2023-01-17T20:23:53.524Z,13.40
2023-01-17T20:26:24.355Z,14.70
2023-01-17T20:28:51.559Z,15.23
2023-01-17T20:31:24.242Z,14.40
2023-01-17T20:33:54.947Z,18.53
2023-01-17T20:36:24.853Z,16.97
2023-01-17T20:38:52.614Z,16.23
2023-01-17T20:41:24.308Z,17.83
2023-01-17T20:43:54.778Z,16.07
2023-01-17T20:46:24.111Z,16.63
2023-01-17T20:48:56.887Z,15.63
2023-01-17T20:51:29.063Z,13.00
2023-01-17T20:54:00.244Z,12.43
2023-01-17T20:56:27.233Z,12.43
2023-01-17T20:58:54.420Z,13.10
2023-01-17T21:01:21.955Z,12.33
2023-01-17T21:03:52.454Z,15.00
2023-01-17T21:06:20.759Z,13.97
2023-01-17T21:08:48.384Z,11.20
2023-01-17T21:11:21.249Z,12.90
2023-01-17T21:13:50.668Z,12.60
2023-01-17T21:16:20.600Z,11.63
2023-01-17T21:18:50.128Z,11.73
2023-01-17T21:21:22.946Z,13.23
2023-01-17T21:23:51.923Z,10.87
2023-01-17T21:26:19.992Z,13.77
2023-01-17T21:28:48.627Z,15.30
2023-01-17T21:31:24.413Z,12.43
2023-01-17T21:33:59.298Z,12.30
2023-01-17T21:36:30.016Z,13.93
2023-01-17T21:38:58.091Z,12.90
2023-01-17T21:41:27.884Z,10.57
2023-01-17T21:43:56.635Z,13.87
2023-01-17T21:46:23.812Z,11.50
2023-01-17T21:48:50.328Z,14.87
2023-01-17T21:51:18.635Z,13.60
2023-01-17T21:53:45.031Z,11.83
2023-01-17T21:56:33.019Z,11.20
2023-01-17T21:59:00.286Z,13.33
2023-01-17T22:01:30.976Z,12.30
2023-01-17T22:04:02.980Z,11.33
2023-01-17T22:06:33.864Z,13.03
2023-01-17T22:09:00.237Z,12.27
2023-01-17T22:11:29.738Z,11.50
2023-01-17T22:13:58.735Z,11.60
2023-01-17T22:16:25.927Z,11.93
2023-01-17T22:18:52.144Z,12.20
2023-01-17T22:21:22.381Z,9.70
2023-01-17T22:23:58.485Z,11.30
2023-01-17T22:26:30.261Z,12.23
2023-01-17T22:29:00.124Z,12.07
2023-01-17T22:31:27.958Z,15.03
2023-01-17T22:34:01.130Z,12.17
2023-01-17T22:36:29.023Z,12.10
2023-01-17T22:38:56.562Z,13.13
2023-01-17T22:41:28.866Z,13.13
2023-01-17T22:43:58.736Z,11.93
2023-01-17T22:46:28.739Z,11.53
2023-01-17T22:48:56.149Z,13.27
2023-01-17T22:51:25.575Z,13.90
2023-01-17T22:53:56.023Z,12.33
2023-01-17T22:56:30.284Z,12.57
2023-01-17T22:59:00.219Z,11.87
2023-01-17T23:01:29.809Z,11.50
2023-01-17T23:03:59.554Z,11.33
2023-01-17T23:06:30.130Z,12.07
2023-01-17T23:09:00.109Z,11.97
2023-01-17T23:11:43.028Z,12.47
2023-01-17T23:14:13.887Z,11.53
2023-01-17T23:17:05.522Z,13.80
2023-01-17T23:19:39.640Z,11.63
2023-01-17T23:22:20.256Z,12.53
2023-01-17T23:25:07.024Z,13.23
2023-01-17T23:28:01.350Z,12.97
2023-01-17T23:30:40.001Z,12.70
2023-01-17T23:33:10.078Z,11.87
2023-01-17T23:35:42.183Z,14.17
2023-01-17T23:38:28.132Z,13.07
2023-01-17T23:41:26.548Z,12.50
2023-01-17T23:43:56.112Z,10.83
2023-01-17T23:46:24.489Z,11.53
2023-01-17T23:48:51.023Z,11.30
2023-01-17T23:51:18.054Z,12.00
2023-01-17T23:53:44.175Z,12.03
2023-01-17T23:56:18.769Z,12.07
2023-01-17T23:58:45.103Z,12.80
